sensor_id;sensor_type;location;lat;lon;timestamp;temperature;humidity
12015;DHT22;6066;48.138;16.402;2022-11-25T00:01:25;6.10;99.90
12015;DHT22;6066;48.138;16.402;2022-11-25T00:03:52;6.20;99.90
12015;DHT22;6066;48.138;16.402;2022-11-25T00:06:19;6.20;99.90
12015;DHT22;6066;48.138;16.402;2022-11-25T00:08:47;6.20;99.90
12015;DHT22;6066;48.138;16.402;2022-11-25T00:11:14;6.20;99.90
12015;DHT22;6066;48.138;16.402;2022-11-25T00:13:41;6.20;99.90
12015;DHT22;6066;48.138;16.402;2022-11-25T00:16:10;6.20;99.90
12015;DHT22;6066;48.138;16.402;2022-11-25T00:18:39;6.20;99.90
12015;DHT22;6066;48.138;16.402;2022-11-25T00:21:06;6.20;99.90
12015;DHT22;6066;48.138;16.402;2022-11-25T00:23:33;6.20;99.90
12015;DHT22;6066;48.138;16.402;2022-11-25T00:26:04;6.30;99.90
12015;DHT22;6066;48.138;16.402;2022-11-25T00:28:31;6.30;99.90
12015;DHT22;6066;48.138;16.402;2022-11-25T00:31:02;6.30;99.90
12015;DHT22;6066;48.138;16.402;2022-11-25T00:33:29;6.30;99.90
12015;DHT22;6066;48.138;16.402;2022-11-25T00:35:57;6.30;99.90
12015;DHT22;6066;48.138;16.402;2022-11-25T00:38:25;6.30;99.90
12015;DHT22;6066;48.138;16.402;2022-11-25T00:40:51;6.30;99.90
12015;DHT22;6066;48.138;16.402;2022-11-25T00:43:39;6.30;99.90
12015;DHT22;6066;48.138;16.402;2022-11-25T00:46:23;6.20;99.90
12015;DHT22;6066;48.138;16.402;2022-11-25T00:48:50;6.20;99.90
12015;DHT22;6066;48.138;16.402;2022-11-25T00:51:18;6.20;99.90
12015;DHT22;6066;48.138;16.402;2022-11-25T00:53:44;6.20;99.90
12015;DHT22;6066;48.138;16.402;2022-11-25T00:56:11;6.20;99.90
12015;DHT22;6066;48.138;16.402;2022-11-25T00:58:41;6.20;99.90
12015;DHT22;6066;48.138;16.402;2022-11-25T01:01:08;6.20;99.90
12015;DHT22;6066;48.138;16.402;2022-11-25T01:03:35;6.20;99.90
12015;DHT22;6066;48.138;16.402;2022-11-25T01:06:02;6.20;99.90
12015;DHT22;6066;48.138;16.402;2022-11-25T01:08:31;6.10;99.90
12015;DHT22;6066;48.138;16.402;2022-11-25T01:10:58;6.10;99.90
12015;DHT22;6066;48.138;16.402;2022-11-25T01:13:25;6.10;99.90
12015;DHT22;6066;48.138;16.402;2022-11-25T01:15:52;6.00;99.90
12015;DHT22;6066;48.138;16.402;2022-11-25T01:18:19;6.00;99.90
12015;DHT22;6066;48.138;16.402;2022-11-25T01:20:45;5.90;99.90
12015;DHT22;6066;48.138;16.402;2022-11-25T01:23:12;5.90;99.90
12015;DHT22;6066;48.138;16.402;2022-11-25T01:25:40;5.90;99.90
12015;DHT22;6066;48.138;16.402;2022-11-25T01:28:07;5.80;99.90
12015;DHT22;6066;48.138;16.402;2022-11-25T01:30:33;5.80;99.90
12015;DHT22;6066;48.138;16.402;2022-11-25T01:33:00;5.70;99.90
12015;DHT22;6066;48.138;16.402;2022-11-25T01:35:27;5.60;99.90
12015;DHT22;6066;48.138;16.402;2022-11-25T01:37:53;5.60;99.90
12015;DHT22;6066;48.138;16.402;2022-11-25T01:40:20;5.50;99.90
12015;DHT22;6066;48.138;16.402;2022-11-25T01:42:48;5.40;99.90
12015;DHT22;6066;48.138;16.402;2022-11-25T01:47:58;5.40;99.90
12015;DHT22;6066;48.138;16.402;2022-11-25T01:50:27;5.30;99.90
12015;DHT22;6066;48.138;16.402;2022-11-25T01:52:54;5.30;99.90
12015;DHT22;6066;48.138;16.402;2022-11-25T01:55:22;5.20;99.90
12015;DHT22;6066;48.138;16.402;2022-11-25T01:57:53;5.20;99.90
12015;DHT22;6066;48.138;16.402;2022-11-25T02:00:20;5.00;99.90
12015;DHT22;6066;48.138;16.402;2022-11-25T02:02:47;5.00;99.90
12015;DHT22;6066;48.138;16.402;2022-11-25T02:05:29;4.80;99.90
12015;DHT22;6066;48.138;16.402;2022-11-25T02:07:58;4.70;99.90
12015;DHT22;6066;48.138;16.402;2022-11-25T02:10:25;4.70;99.90
12015;DHT22;6066;48.138;16.402;2022-11-25T02:12:54;4.60;99.90
12015;DHT22;6066;48.138;16.402;2022-11-25T02:15:21;4.60;99.90
12015;DHT22;6066;48.138;16.402;2022-11-25T02:17:48;4.50;99.90
12015;DHT22;6066;48.138;16.402;2022-11-25T02:20:15;4.50;99.90
12015;DHT22;6066;48.138;16.402;2022-11-25T02:22:47;4.50;99.90
12015;DHT22;6066;48.138;16.402;2022-11-25T02:25:18;4.40;99.90
12015;DHT22;6066;48.138;16.402;2022-11-25T02:27:45;4.40;99.90
12015;DHT22;6066;48.138;16.402;2022-11-25T02:30:13;4.40;99.90
12015;DHT22;6066;48.138;16.402;2022-11-25T02:32:43;4.40;99.90
12015;DHT22;6066;48.138;16.402;2022-11-25T02:35:20;4.40;99.90
12015;DHT22;6066;48.138;16.402;2022-11-25T02:37:49;4.50;99.90
12015;DHT22;6066;48.138;16.402;2022-11-25T02:40:16;4.50;99.90
12015;DHT22;6066;48.138;16.402;2022-11-25T02:42:44;4.50;99.90
12015;DHT22;6066;48.138;16.402;2022-11-25T02:45:11;4.50;99.90
12015;DHT22;6066;48.138;16.402;2022-11-25T02:47:39;4.50;99.90
12015;DHT22;6066;48.138;16.402;2022-11-25T02:50:06;4.50;99.90
12015;DHT22;6066;48.138;16.402;2022-11-25T02:52:34;4.40;99.90
12015;DHT22;6066;48.138;16.402;2022-11-25T02:55:01;4.30;99.90
12015;DHT22;6066;48.138;16.402;2022-11-25T02:57:27;4.30;99.90
12015;DHT22;6066;48.138;16.402;2022-11-25T02:59:55;4.20;99.90
12015;DHT22;6066;48.138;16.402;2022-11-25T03:02:22;4.10;99.90
12015;DHT22;6066;48.138;16.402;2022-11-25T03:04:49;4.10;99.90
12015;DHT22;6066;48.138;16.402;2022-11-25T03:07:15;4.00;99.90
12015;DHT22;6066;48.138;16.402;2022-11-25T03:09:42;4.00;99.90
12015;DHT22;6066;48.138;16.402;2022-11-25T03:12:09;4.10;99.90
12015;DHT22;6066;48.138;16.402;2022-11-25T03:14:44;4.10;99.90
12015;DHT22;6066;48.138;16.402;2022-11-25T03:17:13;4.10;99.90
12015;DHT22;6066;48.138;16.402;2022-11-25T03:19:40;4.20;99.90
12015;DHT22;6066;48.138;16.402;2022-11-25T03:22:06;4.30;99.90
12015;DHT22;6066;48.138;16.402;2022-11-25T03:24:33;4.30;99.90
12015;DHT22;6066;48.138;16.402;2022-11-25T03:27:00;4.40;99.90
12015;DHT22;6066;48.138;16.402;2022-11-25T03:29:26;4.40;99.90
12015;DHT22;6066;48.138;16.402;2022-11-25T03:31:53;4.50;99.90
12015;DHT22;6066;48.138;16.402;2022-11-25T03:34:21;4.50;99.90
12015;DHT22;6066;48.138;16.402;2022-11-25T03:36:48;4.50;99.90
12015;DHT22;6066;48.138;16.402;2022-11-25T03:39:14;4.50;99.90
12015;DHT22;6066;48.138;16.402;2022-11-25T03:41:41;4.50;99.90
12015;DHT22;6066;48.138;16.402;2022-11-25T03:44:08;4.50;99.90
12015;DHT22;6066;48.138;16.402;2022-11-25T03:46:34;4.50;99.90
12015;DHT22;6066;48.138;16.402;2022-11-25T03:49:01;4.50;99.90
12015;DHT22;6066;48.138;16.402;2022-11-25T03:51:29;4.50;99.90
12015;DHT22;6066;48.138;16.402;2022-11-25T03:53:56;4.60;99.90
12015;DHT22;6066;48.138;16.402;2022-11-25T03:56:22;4.50;99.90
12015;DHT22;6066;48.138;16.402;2022-11-25T03:58:49;4.50;99.90
12015;DHT22;6066;48.138;16.402;2022-11-25T04:01:16;4.50;99.90
12015;DHT22;6066;48.138;16.402;2022-11-25T04:03:42;4.50;99.90
12015;DHT22;6066;48.138;16.402;2022-11-25T04:06:09;4.50;99.90
12015;DHT22;6066;48.138;16.402;2022-11-25T04:08:37;4.50;99.90
12015;DHT22;6066;48.138;16.402;2022-11-25T04:11:04;4.50;99.90
12015;DHT22;6066;48.138;16.402;2022-11-25T04:13:31;4.60;99.90
12015;DHT22;6066;48.138;16.402;2022-11-25T04:15:56;4.60;99.90
12015;DHT22;6066;48.138;16.402;2022-11-25T04:18:23;4.60;99.90
12015;DHT22;6066;48.138;16.402;2022-11-25T04:20:49;4.60;99.90
12015;DHT22;6066;48.138;16.402;2022-11-25T04:23:16;4.50;99.90
12015;DHT22;6066;48.138;16.402;2022-11-25T04:25:44;4.40;99.90
12015;DHT22;6066;48.138;16.402;2022-11-25T04:28:11;4.30;99.90
12015;DHT22;6066;48.138;16.402;2022-11-25T04:30:37;4.30;99.90
12015;DHT22;6066;48.138;16.402;2022-11-25T04:33:04;4.10;99.90
12015;DHT22;6066;48.138;16.402;2022-11-25T04:35:31;4.00;99.90
12015;DHT22;6066;48.138;16.402;2022-11-25T04:37:57;3.90;99.90
12015;DHT22;6066;48.138;16.402;2022-11-25T04:40:24;3.80;99.90
12015;DHT22;6066;48.138;16.402;2022-11-25T04:42:52;3.80;99.90
12015;DHT22;6066;48.138;16.402;2022-11-25T04:45:19;3.70;99.90
12015;DHT22;6066;48.138;16.402;2022-11-25T04:47:45;3.60;99.90
12015;DHT22;6066;48.138;16.402;2022-11-25T04:50:13;3.50;99.90
12015;DHT22;6066;48.138;16.402;2022-11-25T04:52:40;3.40;99.90
12015;DHT22;6066;48.138;16.402;2022-11-25T04:55:07;3.40;99.90
12015;DHT22;6066;48.138;16.402;2022-11-25T04:57:34;3.30;99.90
12015;DHT22;6066;48.138;16.402;2022-11-25T05:00:02;3.20;99.90
12015;DHT22;6066;48.138;16.402;2022-11-25T05:02:28;3.10;99.90
12015;DHT22;6066;48.138;16.402;2022-11-25T05:04:55;3.10;99.90
12015;DHT22;6066;48.138;16.402;2022-11-25T05:07:23;3.00;99.90
12015;DHT22;6066;48.138;16.402;2022-11-25T05:09:50;3.00;99.90
12015;DHT22;6066;48.138;16.402;2022-11-25T05:12:18;2.90;99.90
12015;DHT22;6066;48.138;16.402;2022-11-25T05:14:45;2.90;99.90
12015;DHT22;6066;48.138;16.402;2022-11-25T05:17:14;2.90;99.90
12015;DHT22;6066;48.138;16.402;2022-11-25T05:19:41;2.80;99.90
12015;DHT22;6066;48.138;16.402;2022-11-25T05:22:09;2.80;99.90
12015;DHT22;6066;48.138;16.402;2022-11-25T05:24:35;2.80;99.90
12015;DHT22;6066;48.138;16.402;2022-11-25T05:27:02;2.70;99.90
12015;DHT22;6066;48.138;16.402;2022-11-25T05:29:29;2.70;99.90
12015;DHT22;6066;48.138;16.402;2022-11-25T05:31:55;2.60;99.90
12015;DHT22;6066;48.138;16.402;2022-11-25T05:34:23;2.60;99.90
12015;DHT22;6066;48.138;16.402;2022-11-25T05:36:50;2.50;99.90
12015;DHT22;6066;48.138;16.402;2022-11-25T05:39:17;2.50;99.90
12015;DHT22;6066;48.138;16.402;2022-11-25T05:41:44;2.50;99.90
12015;DHT22;6066;48.138;16.402;2022-11-25T05:44:10;2.50;99.90
12015;DHT22;6066;48.138;16.402;2022-11-25T05:46:37;2.50;99.90
12015;DHT22;6066;48.138;16.402;2022-11-25T05:49:04;2.50;99.90
12015;DHT22;6066;48.138;16.402;2022-11-25T05:51:32;2.50;99.90
12015;DHT22;6066;48.138;16.402;2022-11-25T05:53:58;2.50;99.90
12015;DHT22;6066;48.138;16.402;2022-11-25T05:56:25;2.50;99.90
12015;DHT22;6066;48.138;16.402;2022-11-25T05:58:52;2.50;99.90
12015;DHT22;6066;48.138;16.402;2022-11-25T06:01:19;2.50;99.90
12015;DHT22;6066;48.138;16.402;2022-11-25T06:03:46;2.40;99.90
12015;DHT22;6066;48.138;16.402;2022-11-25T06:06:13;2.40;99.90
12015;DHT22;6066;48.138;16.402;2022-11-25T06:08:41;2.40;99.90
12015;DHT22;6066;48.138;16.402;2022-11-25T06:11:09;2.30;99.90
12015;DHT22;6066;48.138;16.402;2022-11-25T06:13:37;2.30;99.90
12015;DHT22;6066;48.138;16.402;2022-11-25T06:16:07;2.30;99.90
12015;DHT22;6066;48.138;16.402;2022-11-25T06:18:34;2.30;99.90
12015;DHT22;6066;48.138;16.402;2022-11-25T06:21:01;2.30;99.90
12015;DHT22;6066;48.138;16.402;2022-11-25T06:23:28;2.30;99.90
12015;DHT22;6066;48.138;16.402;2022-11-25T06:26:02;2.30;99.90
12015;DHT22;6066;48.138;16.402;2022-11-25T06:28:29;2.30;99.90
12015;DHT22;6066;48.138;16.402;2022-11-25T06:30:56;2.30;99.90
12015;DHT22;6066;48.138;16.402;2022-11-25T06:33:22;2.30;99.90
12015;DHT22;6066;48.138;16.402;2022-11-25T06:35:49;2.30;99.90
12015;DHT22;6066;48.138;16.402;2022-11-25T06:38:16;2.20;99.90
12015;DHT22;6066;48.138;16.402;2022-11-25T06:40:42;2.20;99.90
12015;DHT22;6066;48.138;16.402;2022-11-25T06:43:10;2.20;99.90
12015;DHT22;6066;48.138;16.402;2022-11-25T06:45:37;2.20;99.90
12015;DHT22;6066;48.138;16.402;2022-11-25T06:48:04;2.20;99.90
12015;DHT22;6066;48.138;16.402;2022-11-25T06:50:30;2.20;99.90
12015;DHT22;6066;48.138;16.402;2022-11-25T06:52:58;2.20;99.90
12015;DHT22;6066;48.138;16.402;2022-11-25T06:55:25;2.20;99.90
12015;DHT22;6066;48.138;16.402;2022-11-25T06:57:52;2.20;99.90
12015;DHT22;6066;48.138;16.402;2022-11-25T07:00:20;2.20;99.90
12015;DHT22;6066;48.138;16.402;2022-11-25T07:02:47;2.20;99.90
12015;DHT22;6066;48.138;16.402;2022-11-25T07:05:13;2.20;99.90
12015;DHT22;6066;48.138;16.402;2022-11-25T07:07:40;2.20;99.90
12015;DHT22;6066;48.138;16.402;2022-11-25T07:10:07;2.20;99.90
12015;DHT22;6066;48.138;16.402;2022-11-25T07:12:34;2.30;99.90
12015;DHT22;6066;48.138;16.402;2022-11-25T07:15:01;2.30;99.90
12015;DHT22;6066;48.138;16.402;2022-11-25T07:17:29;2.30;99.90
12015;DHT22;6066;48.138;16.402;2022-11-25T07:19:55;2.30;99.90
12015;DHT22;6066;48.138;16.402;2022-11-25T07:22:22;2.40;99.90
12015;DHT22;6066;48.138;16.402;2022-11-25T07:24:49;2.40;99.90
12015;DHT22;6066;48.138;16.402;2022-11-25T07:27:15;2.50;99.90
12015;DHT22;6066;48.138;16.402;2022-11-25T07:29:42;2.50;99.90
12015;DHT22;6066;48.138;16.402;2022-11-25T07:32:09;2.60;99.90
12015;DHT22;6066;48.138;16.402;2022-11-25T07:34:37;2.60;99.90
12015;DHT22;6066;48.138;16.402;2022-11-25T07:37:03;2.70;99.90
12015;DHT22;6066;48.138;16.402;2022-11-25T07:39:30;2.70;99.90
12015;DHT22;6066;48.138;16.402;2022-11-25T07:41:56;2.80;99.90
12015;DHT22;6066;48.138;16.402;2022-11-25T07:44:23;2.90;99.90
12015;DHT22;6066;48.138;16.402;2022-11-25T07:46:50;2.90;99.90
12015;DHT22;6066;48.138;16.402;2022-11-25T07:49:17;3.00;99.90
12015;DHT22;6066;48.138;16.402;2022-11-25T07:51:48;3.10;99.90
12015;DHT22;6066;48.138;16.402;2022-11-25T07:54:15;3.10;99.90
12015;DHT22;6066;48.138;16.402;2022-11-25T07:56:42;3.20;99.90
12015;DHT22;6066;48.138;16.402;2022-11-25T07:59:11;3.40;99.90
12015;DHT22;6066;48.138;16.402;2022-11-25T08:01:38;3.50;99.90
12015;DHT22;6066;48.138;16.402;2022-11-25T08:04:05;3.70;99.90
12015;DHT22;6066;48.138;16.402;2022-11-25T08:06:35;3.80;99.90
12015;DHT22;6066;48.138;16.402;2022-11-25T08:09:04;4.00;99.90
12015;DHT22;6066;48.138;16.402;2022-11-25T08:11:30;4.10;99.90
12015;DHT22;6066;48.138;16.402;2022-11-25T08:13:57;4.20;99.90
12015;DHT22;6066;48.138;16.402;2022-11-25T08:16:25;4.40;99.90
12015;DHT22;6066;48.138;16.402;2022-11-25T08:18:52;4.50;99.90
12015;DHT22;6066;48.138;16.402;2022-11-25T08:21:19;4.60;99.90
12015;DHT22;6066;48.138;16.402;2022-11-25T08:23:45;4.60;99.90
12015;DHT22;6066;48.138;16.402;2022-11-25T08:26:15;4.70;99.90
12015;DHT22;6066;48.138;16.402;2022-11-25T08:28:42;4.80;99.90
12015;DHT22;6066;48.138;16.402;2022-11-25T08:31:10;4.80;99.90
12015;DHT22;6066;48.138;16.402;2022-11-25T08:33:36;4.80;99.90
12015;DHT22;6066;48.138;16.402;2022-11-25T08:36:03;4.90;99.90
12015;DHT22;6066;48.138;16.402;2022-11-25T08:38:30;4.90;99.90
12015;DHT22;6066;48.138;16.402;2022-11-25T08:40:57;4.90;99.90
12015;DHT22;6066;48.138;16.402;2022-11-25T08:43:25;5.00;99.90
12015;DHT22;6066;48.138;16.402;2022-11-25T08:45:52;5.00;99.90
12015;DHT22;6066;48.138;16.402;2022-11-25T08:48:19;5.10;99.90
12015;DHT22;6066;48.138;16.402;2022-11-25T08:50:46;5.20;99.90
12015;DHT22;6066;48.138;16.402;2022-11-25T08:53:14;5.30;99.90
12015;DHT22;6066;48.138;16.402;2022-11-25T08:55:41;5.30;99.90
12015;DHT22;6066;48.138;16.402;2022-11-25T08:58:07;5.40;99.90
12015;DHT22;6066;48.138;16.402;2022-11-25T09:00:39;5.40;99.90
12015;DHT22;6066;48.138;16.402;2022-11-25T09:03:06;5.50;99.90
12015;DHT22;6066;48.138;16.402;2022-11-25T09:05:33;5.60;99.90
12015;DHT22;6066;48.138;16.402;2022-11-25T09:08:00;5.60;99.90
12015;DHT22;6066;48.138;16.402;2022-11-25T09:10:27;5.70;99.90
12015;DHT22;6066;48.138;16.402;2022-11-25T09:12:53;5.80;99.90
12015;DHT22;6066;48.138;16.402;2022-11-25T09:15:20;5.90;99.90
12015;DHT22;6066;48.138;16.402;2022-11-25T09:17:48;6.00;99.90
12015;DHT22;6066;48.138;16.402;2022-11-25T09:20:22;6.00;99.90
12015;DHT22;6066;48.138;16.402;2022-11-25T09:22:49;6.10;99.90
12015;DHT22;6066;48.138;16.402;2022-11-25T09:25:15;6.20;99.90
12015;DHT22;6066;48.138;16.402;2022-11-25T09:27:42;6.30;99.90
12015;DHT22;6066;48.138;16.402;2022-11-25T09:30:09;6.40;99.90
12015;DHT22;6066;48.138;16.402;2022-11-25T09:32:36;6.40;99.90
12015;DHT22;6066;48.138;16.402;2022-11-25T09:35:04;6.40;99.90
12015;DHT22;6066;48.138;16.402;2022-11-25T09:37:31;6.50;99.90
12015;DHT22;6066;48.138;16.402;2022-11-25T09:39:58;6.60;99.90
12015;DHT22;6066;48.138;16.402;2022-11-25T09:42:27;6.70;99.90
12015;DHT22;6066;48.138;16.402;2022-11-25T09:45:15;6.70;99.90
12015;DHT22;6066;48.138;16.402;2022-11-25T09:48:03;6.80;99.90
12015;DHT22;6066;48.138;16.402;2022-11-25T09:50:40;6.90;99.90
12015;DHT22;6066;48.138;16.402;2022-11-25T09:53:11;7.10;99.90
12015;DHT22;6066;48.138;16.402;2022-11-25T09:55:43;7.20;99.90
12015;DHT22;6066;48.138;16.402;2022-11-25T09:58:14;7.30;99.90
12015;DHT22;6066;48.138;16.402;2022-11-25T10:00:43;7.40;99.90
12015;DHT22;6066;48.138;16.402;2022-11-25T10:03:12;7.50;99.90
12015;DHT22;6066;48.138;16.402;2022-11-25T10:05:42;7.50;99.90
12015;DHT22;6066;48.138;16.402;2022-11-25T10:08:11;7.60;99.90
12015;DHT22;6066;48.138;16.402;2022-11-25T10:10:41;7.70;99.90
12015;DHT22;6066;48.138;16.402;2022-11-25T10:13:13;7.80;99.90
12015;DHT22;6066;48.138;16.402;2022-11-25T10:15:41;7.90;99.90
12015;DHT22;6066;48.138;16.402;2022-11-25T10:18:11;8.00;99.90
12015;DHT22;6066;48.138;16.402;2022-11-25T10:20:39;8.10;99.90
12015;DHT22;6066;48.138;16.402;2022-11-25T10:23:10;8.10;99.90
12015;DHT22;6066;48.138;16.402;2022-11-25T10:25:38;8.20;99.90
12015;DHT22;6066;48.138;16.402;2022-11-25T10:28:09;8.20;99.90
12015;DHT22;6066;48.138;16.402;2022-11-25T10:30:43;8.20;99.90
12015;DHT22;6066;48.138;16.402;2022-11-25T10:33:12;8.20;99.90
12015;DHT22;6066;48.138;16.402;2022-11-25T10:35:42;8.10;99.90
12015;DHT22;6066;48.138;16.402;2022-11-25T10:38:12;8.20;99.90
12015;DHT22;6066;48.138;16.402;2022-11-25T10:40:41;8.20;99.90
12015;DHT22;6066;48.138;16.402;2022-11-25T10:43:10;8.30;99.90
12015;DHT22;6066;48.138;16.402;2022-11-25T10:45:39;8.30;99.90
12015;DHT22;6066;48.138;16.402;2022-11-25T10:48:21;8.40;99.90
12015;DHT22;6066;48.138;16.402;2022-11-25T10:50:57;8.40;99.90
12015;DHT22;6066;48.138;16.402;2022-11-25T10:53:29;8.50;99.90
12015;DHT22;6066;48.138;16.402;2022-11-25T10:55:57;8.50;99.90
12015;DHT22;6066;48.138;16.402;2022-11-25T10:58:25;8.50;99.90
12015;DHT22;6066;48.138;16.402;2022-11-25T11:01:00;8.50;99.90
12015;DHT22;6066;48.138;16.402;2022-11-25T11:03:27;8.60;99.90
12015;DHT22;6066;48.138;16.402;2022-11-25T11:05:53;8.60;99.90
12015;DHT22;6066;48.138;16.402;2022-11-25T11:08:21;8.50;99.90
12015;DHT22;6066;48.138;16.402;2022-11-25T11:11:07;8.50;99.90
12015;DHT22;6066;48.138;16.402;2022-11-25T11:13:34;8.50;99.90
12015;DHT22;6066;48.138;16.402;2022-11-25T11:16:00;8.50;99.90
12015;DHT22;6066;48.138;16.402;2022-11-25T11:18:28;8.60;99.90
12015;DHT22;6066;48.138;16.402;2022-11-25T11:20:56;8.60;99.90
12015;DHT22;6066;48.138;16.402;2022-11-25T11:23:23;8.70;99.90
12015;DHT22;6066;48.138;16.402;2022-11-25T11:25:54;8.70;99.90
12015;DHT22;6066;48.138;16.402;2022-11-25T11:28:26;8.70;99.90
12015;DHT22;6066;48.138;16.402;2022-11-25T11:30:55;8.70;99.90
12015;DHT22;6066;48.138;16.402;2022-11-25T11:33:27;8.70;99.90
12015;DHT22;6066;48.138;16.402;2022-11-25T11:35:56;8.80;99.90
12015;DHT22;6066;48.138;16.402;2022-11-25T11:38:31;8.80;99.90
12015;DHT22;6066;48.138;16.402;2022-11-25T11:41:01;8.80;99.90
12015;DHT22;6066;48.138;16.402;2022-11-25T11:43:44;8.90;99.90
12015;DHT22;6066;48.138;16.402;2022-11-25T11:46:19;8.90;99.90
12015;DHT22;6066;48.138;16.402;2022-11-25T11:48:53;8.90;99.90
12015;DHT22;6066;48.138;16.402;2022-11-25T11:51:24;8.80;99.90
12015;DHT22;6066;48.138;16.402;2022-11-25T11:53:56;8.70;99.90
12015;DHT22;6066;48.138;16.402;2022-11-25T11:56:28;8.50;99.90
12015;DHT22;6066;48.138;16.402;2022-11-25T11:59:03;8.50;99.90
12015;DHT22;6066;48.138;16.402;2022-11-25T12:01:36;8.40;99.90
12015;DHT22;6066;48.138;16.402;2022-11-25T12:04:08;8.40;99.90
12015;DHT22;6066;48.138;16.402;2022-11-25T12:06:39;8.50;99.90
12015;DHT22;6066;48.138;16.402;2022-11-25T12:09:09;8.60;99.90
12015;DHT22;6066;48.138;16.402;2022-11-25T12:11:38;8.60;99.90
12015;DHT22;6066;48.138;16.402;2022-11-25T12:14:10;8.70;99.90
12015;DHT22;6066;48.138;16.402;2022-11-25T12:16:42;8.70;99.90
12015;DHT22;6066;48.138;16.402;2022-11-25T12:19:11;8.80;99.90
12015;DHT22;6066;48.138;16.402;2022-11-25T12:21:42;8.80;99.90
12015;DHT22;6066;48.138;16.402;2022-11-25T12:24:13;8.80;99.90
12015;DHT22;6066;48.138;16.402;2022-11-25T12:26:44;8.90;99.90
12015;DHT22;6066;48.138;16.402;2022-11-25T12:29:18;9.00;99.90
12015;DHT22;6066;48.138;16.402;2022-11-25T12:31:47;9.00;99.90
12015;DHT22;6066;48.138;16.402;2022-11-25T12:34:16;9.00;99.90
12015;DHT22;6066;48.138;16.402;2022-11-25T12:36:46;9.00;99.90
12015;DHT22;6066;48.138;16.402;2022-11-25T12:39:14;9.10;99.90
12015;DHT22;6066;48.138;16.402;2022-11-25T12:41:46;9.10;99.90
12015;DHT22;6066;48.138;16.402;2022-11-25T12:44:17;9.10;99.90
12015;DHT22;6066;48.138;16.402;2022-11-25T12:46:46;9.10;99.90
12015;DHT22;6066;48.138;16.402;2022-11-25T12:49:16;9.20;99.90
12015;DHT22;6066;48.138;16.402;2022-11-25T12:54:33;9.20;99.90
12015;DHT22;6066;48.138;16.402;2022-11-25T12:59:58;9.20;99.90
12015;DHT22;6066;48.138;16.402;2022-11-25T13:05:22;9.20;99.90
12015;DHT22;6066;48.138;16.402;2022-11-25T13:07:53;9.20;99.90
12015;DHT22;6066;48.138;16.402;2022-11-25T13:10:30;9.10;99.90
12015;DHT22;6066;48.138;16.402;2022-11-25T13:13:12;9.10;99.90
12015;DHT22;6066;48.138;16.402;2022-11-25T13:15:44;9.10;99.90
12015;DHT22;6066;48.138;16.402;2022-11-25T13:18:12;9.10;99.90
12015;DHT22;6066;48.138;16.402;2022-11-25T13:20:44;9.10;99.90
12015;DHT22;6066;48.138;16.402;2022-11-25T13:23:24;9.10;99.90
12015;DHT22;6066;48.138;16.402;2022-11-25T13:25:51;9.00;99.90
12015;DHT22;6066;48.138;16.402;2022-11-25T13:28:27;9.00;99.90
12015;DHT22;6066;48.138;16.402;2022-11-25T13:30:55;9.00;99.90
12015;DHT22;6066;48.138;16.402;2022-11-25T13:36:42;9.00;99.90
12015;DHT22;6066;48.138;16.402;2022-11-25T13:39:12;9.00;99.90
12015;DHT22;6066;48.138;16.402;2022-11-25T13:41:40;8.90;99.90
12015;DHT22;6066;48.138;16.402;2022-11-25T13:44:18;8.90;99.90
12015;DHT22;6066;48.138;16.402;2022-11-25T13:46:47;8.90;99.90
12015;DHT22;6066;48.138;16.402;2022-11-25T13:49:22;8.80;99.90
12015;DHT22;6066;48.138;16.402;2022-11-25T13:51:51;8.80;99.90
12015;DHT22;6066;48.138;16.402;2022-11-25T13:54:19;8.70;99.90
12015;DHT22;6066;48.138;16.402;2022-11-25T13:56:57;8.60;99.90
12015;DHT22;6066;48.138;16.402;2022-11-25T13:59:33;8.50;99.90
12015;DHT22;6066;48.138;16.402;2022-11-25T14:04:48;8.40;99.90
12015;DHT22;6066;48.138;16.402;2022-11-25T14:07:23;8.30;99.90
12015;DHT22;6066;48.138;16.402;2022-11-25T14:09:55;8.20;99.90
12015;DHT22;6066;48.138;16.402;2022-11-25T14:15:13;8.10;99.90
12015;DHT22;6066;48.138;16.402;2022-11-25T14:17:56;8.00;99.90
12015;DHT22;6066;48.138;16.402;2022-11-25T14:20:31;8.00;99.90
12015;DHT22;6066;48.138;16.402;2022-11-25T14:23:08;7.90;99.90
12015;DHT22;6066;48.138;16.402;2022-11-25T14:25:43;7.80;99.90
12015;DHT22;6066;48.138;16.402;2022-11-25T14:28:14;7.80;99.90
12015;DHT22;6066;48.138;16.402;2022-11-25T14:30:44;7.60;99.90
12015;DHT22;6066;48.138;16.402;2022-11-25T14:33:12;7.50;99.90
12015;DHT22;6066;48.138;16.402;2022-11-25T14:35:42;7.40;99.90
12015;DHT22;6066;48.138;16.402;2022-11-25T14:38:12;7.30;99.90
12015;DHT22;6066;48.138;16.402;2022-11-25T14:40:43;7.10;99.90
12015;DHT22;6066;48.138;16.402;2022-11-25T14:43:11;7.00;99.90
12015;DHT22;6066;48.138;16.402;2022-11-25T14:45:40;6.90;99.90
12015;DHT22;6066;48.138;16.402;2022-11-25T14:48:13;6.70;99.90
12015;DHT22;6066;48.138;16.402;2022-11-25T14:50:53;6.60;99.90
12015;DHT22;6066;48.138;16.402;2022-11-25T14:53:20;6.50;99.90
12015;DHT22;6066;48.138;16.402;2022-11-25T14:55:47;6.40;99.90
12015;DHT22;6066;48.138;16.402;2022-11-25T14:58:14;6.40;99.90
12015;DHT22;6066;48.138;16.402;2022-11-25T15:00:48;6.20;99.90
12015;DHT22;6066;48.138;16.402;2022-11-25T15:03:16;6.20;99.90
12015;DHT22;6066;48.138;16.402;2022-11-25T15:05:44;6.00;99.90
12015;DHT22;6066;48.138;16.402;2022-11-25T15:08:20;6.00;99.90
12015;DHT22;6066;48.138;16.402;2022-11-25T15:10:49;5.90;99.90
12015;DHT22;6066;48.138;16.402;2022-11-25T15:13:23;5.70;99.90
12015;DHT22;6066;48.138;16.402;2022-11-25T15:15:50;5.70;99.90
12015;DHT22;6066;48.138;16.402;2022-11-25T15:18:18;5.60;99.90
12015;DHT22;6066;48.138;16.402;2022-11-25T15:20:46;5.60;99.90
12015;DHT22;6066;48.138;16.402;2022-11-25T15:23:13;5.60;99.90
12015;DHT22;6066;48.138;16.402;2022-11-25T15:25:51;5.50;99.90
12015;DHT22;6066;48.138;16.402;2022-11-25T15:28:18;5.50;99.90
12015;DHT22;6066;48.138;16.402;2022-11-25T15:30:54;5.40;99.90
12015;DHT22;6066;48.138;16.402;2022-11-25T15:33:23;5.30;99.90
12015;DHT22;6066;48.138;16.402;2022-11-25T15:35:51;5.30;99.90
12015;DHT22;6066;48.138;16.402;2022-11-25T15:38:18;5.20;99.90
12015;DHT22;6066;48.138;16.402;2022-11-25T15:40:54;5.20;99.90
12015;DHT22;6066;48.138;16.402;2022-11-25T15:43:22;5.10;99.90
12015;DHT22;6066;48.138;16.402;2022-11-25T15:45:51;5.10;99.90
12015;DHT22;6066;48.138;16.402;2022-11-25T15:48:21;5.10;99.90
12015;DHT22;6066;48.138;16.402;2022-11-25T15:50:50;5.10;99.90
12015;DHT22;6066;48.138;16.402;2022-11-25T15:53:20;5.00;99.90
12015;DHT22;6066;48.138;16.402;2022-11-25T15:55:48;4.90;99.90
12015;DHT22;6066;48.138;16.402;2022-11-25T15:58:17;4.90;99.90
12015;DHT22;6066;48.138;16.402;2022-11-25T16:00:58;4.80;99.90
12015;DHT22;6066;48.138;16.402;2022-11-25T16:03:24;4.80;99.90
12015;DHT22;6066;48.138;16.402;2022-11-25T16:05:52;4.80;99.90
12015;DHT22;6066;48.138;16.402;2022-11-25T16:08:22;4.70;99.90
12015;DHT22;6066;48.138;16.402;2022-11-25T16:10:50;4.60;99.90
12015;DHT22;6066;48.138;16.402;2022-11-25T16:13:26;4.60;99.90
12015;DHT22;6066;48.138;16.402;2022-11-25T16:15:56;4.50;99.90